sensor_id;sensor_type;location;lat;lon;timestamp;pressure;altitude;pressure_sealevel;temperature;humidity
17764;BME280;22245;52.832;13.816;2023-05-01T00:01:21;102059.13;;;6.26;68.65
17764;BME280;22245;52.832;13.816;2023-05-01T00:04:43;102059.25;;;6.23;68.75
17764;BME280;22245;52.832;13.816;2023-05-01T00:08:05;102054.19;;;6.18;69.12
17764;BME280;22245;52.832;13.816;2023-05-01T00:11:26;102058.69;;;6.16;68.95
17764;BME280;22245;52.832;13.816;2023-05-01T00:14:48;102043.03;;;6.12;69.02
17764;BME280;22245;52.832;13.816;2023-05-01T00:18:10;102044.97;;;6.08;69.33
17764;BME280;22245;52.832;13.816;2023-05-01T00:21:32;102039.78;;;6.05;69.87
17764;BME280;22245;52.832;13.816;2023-05-01T00:24:54;102037.34;;;6.00;69.67
17764;BME280;22245;52.832;13.816;2023-05-01T00:28:17;102036.53;;;5.98;69.65
17764;BME280;22245;52.832;13.816;2023-05-01T00:31:38;102034.03;;;5.95;70.27
17764;BME280;22245;52.832;13.816;2023-05-01T00:35:02;102027.09;;;5.92;70.05
17764;BME280;22245;52.832;13.816;2023-05-01T00:38:24;102028.91;;;5.92;70.17
17764;BME280;22245;52.832;13.816;2023-05-01T00:41:45;102021.94;;;5.89;70.53
17764;BME280;22245;52.832;13.816;2023-05-01T00:45:07;102019.59;;;5.83;70.66
17764;BME280;22245;52.832;13.816;2023-05-01T00:48:29;102023.28;;;5.79;70.51
17764;BME280;22245;52.832;13.816;2023-05-01T00:51:52;102011.28;;;5.72;70.81
17764;BME280;22245;52.832;13.816;2023-05-01T00:55:15;102013.25;;;5.67;71.06
17764;BME280;22245;52.832;13.816;2023-05-01T00:58:37;102009.94;;;5.61;71.27
17764;BME280;22245;52.832;13.816;2023-05-01T01:01:58;102010.16;;;5.57;71.48
17764;BME280;22245;52.832;13.816;2023-05-01T01:05:23;102013.78;;;5.54;71.38
17764;BME280;22245;52.832;13.816;2023-05-01T01:08:56;102013.13;;;5.49;71.67
17764;BME280;22245;52.832;13.816;2023-05-01T01:12:24;102002.75;;;5.44;71.79
17764;BME280;22245;52.832;13.816;2023-05-01T01:15:51;102003.75;;;5.42;72.16
17764;BME280;22245;52.832;13.816;2023-05-01T01:19:47;102002.19;;;5.38;72.10
17764;BME280;22245;52.832;13.816;2023-05-01T01:23:26;102004.16;;;5.32;71.90
17764;BME280;22245;52.832;13.816;2023-05-01T01:27:12;101999.13;;;5.26;71.92
17764;BME280;22245;52.832;13.816;2023-05-01T01:34:43;101999.72;;;5.12;72.23
17764;BME280;22245;52.832;13.816;2023-05-01T01:38:09;101992.03;;;5.06;72.52
17764;BME280;22245;52.832;13.816;2023-05-01T01:41:36;101986.19;;;4.99;72.10
17764;BME280;22245;52.832;13.816;2023-05-01T01:45:02;101991.63;;;4.95;72.34
17764;BME280;22245;52.832;13.816;2023-05-01T01:48:30;101989.16;;;4.90;72.44
17764;BME280;22245;52.832;13.816;2023-05-01T01:51:55;101989.44;;;4.84;72.22
17764;BME280;22245;52.832;13.816;2023-05-01T01:55:21;101987.03;;;4.77;72.71
17764;BME280;22245;52.832;13.816;2023-05-01T01:58:47;101989.81;;;4.74;72.95
17764;BME280;22245;52.832;13.816;2023-05-01T02:02:13;101990.00;;;4.70;73.14
17764;BME280;22245;52.832;13.816;2023-05-01T02:05:36;101987.56;;;4.65;72.41
17764;BME280;22245;52.832;13.816;2023-05-01T02:09:00;101986.09;;;4.58;72.47
17764;BME280;22245;52.832;13.816;2023-05-01T02:12:26;101980.06;;;4.54;73.04
17764;BME280;22245;52.832;13.816;2023-05-01T02:15:50;101969.69;;;4.49;72.51
17764;BME280;22245;52.832;13.816;2023-05-01T02:19:13;101967.16;;;4.46;73.12
17764;BME280;22245;52.832;13.816;2023-05-01T02:22:35;101955.91;;;4.43;72.79
17764;BME280;22245;52.832;13.816;2023-05-01T02:26:02;101953.44;;;4.38;73.11
17764;BME280;22245;52.832;13.816;2023-05-01T02:29:24;101957.91;;;4.36;73.22
17764;BME280;22245;52.832;13.816;2023-05-01T02:32:47;101955.41;;;4.33;73.03
17764;BME280;22245;52.832;13.816;2023-05-01T02:36:08;101946.69;;;4.31;73.51
17764;BME280;22245;52.832;13.816;2023-05-01T02:39:32;101942.38;;;4.28;73.26
17764;BME280;22245;52.832;13.816;2023-05-01T02:42:56;101946.81;;;4.28;73.72
17764;BME280;22245;52.832;13.816;2023-05-01T02:46:23;101939.06;;;4.23;73.44
17764;BME280;22245;52.832;13.816;2023-05-01T02:49:47;101938.22;;;4.23;74.08
17764;BME280;22245;52.832;13.816;2023-05-01T02:53:10;101940.06;;;4.20;73.61
17764;BME280;22245;52.832;13.816;2023-05-01T02:56:39;101937.47;;;4.19;73.27
17764;BME280;22245;52.832;13.816;2023-05-01T03:00:03;101932.19;;;4.19;73.52
17764;BME280;22245;52.832;13.816;2023-05-01T03:03:29;101933.06;;;4.19;74.06
17764;BME280;22245;52.832;13.816;2023-05-01T03:06:50;101935.88;;;4.15;73.98
17764;BME280;22245;52.832;13.816;2023-05-01T03:10:13;101931.56;;;4.12;74.47
17764;BME280;22245;52.832;13.816;2023-05-01T03:13:35;101922.88;;;4.10;73.62
17764;BME280;22245;52.832;13.816;2023-05-01T03:16:58;101921.16;;;4.09;73.69
17764;BME280;22245;52.832;13.816;2023-05-01T03:20:19;101927.34;;;4.08;74.09
17764;BME280;22245;52.832;13.816;2023-05-01T03:23:40;101917.72;;;4.07;74.25
17764;BME280;22245;52.832;13.816;2023-05-01T03:27:02;101917.72;;;4.07;73.70
17764;BME280;22245;52.832;13.816;2023-05-01T03:30:24;101917.84;;;4.04;74.12
17764;BME280;22245;52.832;13.816;2023-05-01T03:33:48;101910.03;;;4.01;74.11
17764;BME280;22245;52.832;13.816;2023-05-01T03:37:09;101910.22;;;3.96;74.20
17764;BME280;22245;52.832;13.816;2023-05-01T03:40:31;101901.50;;;3.94;74.45
17764;BME280;22245;52.832;13.816;2023-05-01T03:44:22;101903.41;;;3.90;73.98
17764;BME280;22245;52.832;13.816;2023-05-01T03:47:43;101900.91;;;3.87;74.32
17764;BME280;22245;52.832;13.816;2023-05-01T03:51:07;101903.53;;;3.87;74.34
17764;BME280;22245;52.832;13.816;2023-05-01T03:54:30;101894.75;;;3.87;74.60
17764;BME280;22245;52.832;13.816;2023-05-01T03:58:05;101895.63;;;3.87;74.42
17764;BME280;22245;52.832;13.816;2023-05-01T04:01:27;101892.13;;;3.87;73.93
17764;BME280;22245;52.832;13.816;2023-05-01T04:04:49;101898.19;;;3.89;74.51
17764;BME280;22245;52.832;13.816;2023-05-01T04:08:12;101898.94;;;3.93;74.23
17764;BME280;22245;52.832;13.816;2023-05-01T04:11:34;101898.81;;;3.96;74.00
17764;BME280;22245;52.832;13.816;2023-05-01T04:14:55;101890.00;;;3.97;74.09
17764;BME280;22245;52.832;13.816;2023-05-01T04:18:17;101891.59;;;4.01;74.52
17764;BME280;22245;52.832;13.816;2023-05-01T04:21:39;101888.78;;;4.05;75.29
17764;BME280;22245;52.832;13.816;2023-05-01T04:25:03;101892.94;;;4.11;74.90
17764;BME280;22245;52.832;13.816;2023-05-01T04:28:26;101890.97;;;4.16;74.96
17764;BME280;22245;52.832;13.816;2023-05-01T04:31:50;101892.59;;;4.20;74.63
17764;BME280;22245;52.832;13.816;2023-05-01T04:35:12;101891.56;;;4.25;74.07
17764;BME280;22245;52.832;13.816;2023-05-01T04:38:36;101888.78;;;4.28;74.56
17764;BME280;22245;52.832;13.816;2023-05-01T04:41:59;101889.50;;;4.31;74.81
17764;BME280;22245;52.832;13.816;2023-05-01T04:45:21;101877.03;;;4.37;74.84
17764;BME280;22245;52.832;13.816;2023-05-01T04:48:43;101880.19;;;4.45;74.62
17764;BME280;22245;52.832;13.816;2023-05-01T04:52:04;101881.66;;;4.52;74.65
17764;BME280;22245;52.832;13.816;2023-05-01T04:55:40;101877.78;;;4.61;74.91
17764;BME280;22245;52.832;13.816;2023-05-01T04:59:08;101871.19;;;4.71;74.89
17764;BME280;22245;52.832;13.816;2023-05-01T05:02:30;101865.50;;;4.81;74.72
17764;BME280;22245;52.832;13.816;2023-05-01T05:05:51;101860.56;;;4.93;73.79
17764;BME280;22245;52.832;13.816;2023-05-01T05:09:13;101854.81;;;5.04;73.87
17764;BME280;22245;52.832;13.816;2023-05-01T05:12:39;101860.31;;;5.19;73.13
17764;BME280;22245;52.832;13.816;2023-05-01T05:16:02;101861.50;;;5.32;72.50
17764;BME280;22245;52.832;13.816;2023-05-01T05:19:24;101857.44;;;5.44;72.19
17764;BME280;22245;52.832;13.816;2023-05-01T05:22:46;101847.25;;;5.56;72.05
17764;BME280;22245;52.832;13.816;2023-05-01T05:26:14;101861.66;;;5.68;71.59
17764;BME280;22245;52.832;13.816;2023-05-01T05:29:35;101849.81;;;5.76;71.20
17764;BME280;22245;52.832;13.816;2023-05-01T05:32:58;101843.06;;;5.88;70.86
17764;BME280;22245;52.832;13.816;2023-05-01T05:36:20;101835.47;;;6.00;70.74
17764;BME280;22245;52.832;13.816;2023-05-01T05:39:41;101842.16;;;6.08;70.47
17764;BME280;22245;52.832;13.816;2023-05-01T05:43:03;101833.75;;;6.18;70.09
17764;BME280;22245;52.832;13.816;2023-05-01T05:46:25;101829.66;;;6.30;69.60
17764;BME280;22245;52.832;13.816;2023-05-01T05:49:48;101828.41;;;6.37;69.51
17764;BME280;22245;52.832;13.816;2023-05-01T05:53:09;101821.66;;;6.49;69.05
17764;BME280;22245;52.832;13.816;2023-05-01T05:56:31;101824.75;;;6.57;68.61
17764;BME280;22245;52.832;13.816;2023-05-01T05:59:52;101818.13;;;6.66;68.46
17764;BME280;22245;52.832;13.816;2023-05-01T06:03:16;101814.78;;;6.80;67.88
17764;BME280;22245;52.832;13.816;2023-05-01T06:06:40;101814.22;;;6.91;67.47
17764;BME280;22245;52.832;13.816;2023-05-01T06:10:02;101815.44;;;7.01;67.56
17764;BME280;22245;52.832;13.816;2023-05-01T06:13:24;101814.19;;;7.08;67.38
17764;BME280;22245;52.832;13.816;2023-05-01T06:16:46;101815.38;;;7.19;66.68
17764;BME280;22245;52.832;13.816;2023-05-01T06:20:08;101818.34;;;7.30;66.84
17764;BME280;22245;52.832;13.816;2023-05-01T06:23:32;101809.88;;;7.39;66.55
17764;BME280;22245;52.832;13.816;2023-05-01T06:27:20;101804.84;;;7.51;66.23
17764;BME280;22245;52.832;13.816;2023-05-01T06:30:41;101797.94;;;7.64;65.39
17764;BME280;22245;52.832;13.816;2023-05-01T06:34:03;101810.66;;;7.74;65.24
17764;BME280;22245;52.832;13.816;2023-05-01T06:37:36;101805.59;;;7.85;65.33
17764;BME280;22245;52.832;13.816;2023-05-01T06:41:01;101800.56;;;7.96;65.10
17764;BME280;22245;52.832;13.816;2023-05-01T06:44:24;101799.91;;;8.07;64.75
17764;BME280;22245;52.832;13.816;2023-05-01T06:47:45;101800.94;;;8.21;64.61
17764;BME280;22245;52.832;13.816;2023-05-01T06:51:07;101788.06;;;8.29;61.44
17764;BME280;22245;52.832;13.816;2023-05-01T06:54:29;101783.72;;;8.43;63.08
17764;BME280;22245;52.832;13.816;2023-05-01T06:57:52;101776.78;;;8.56;63.18
17764;BME280;22245;52.832;13.816;2023-05-01T07:01:14;101784.94;;;8.67;62.72
17764;BME280;22245;52.832;13.816;2023-05-01T07:04:36;101786.00;;;8.79;63.29
17764;BME280;22245;52.832;13.816;2023-05-01T07:07:57;101779.75;;;8.95;62.34
17764;BME280;22245;52.832;13.816;2023-05-01T07:11:21;101780.59;;;9.10;61.76
17764;BME280;22245;52.832;13.816;2023-05-01T07:14:44;101778.03;;;9.23;61.19
17764;BME280;22245;52.832;13.816;2023-05-01T07:18:05;101775.44;;;9.36;60.86
17764;BME280;22245;52.832;13.816;2023-05-01T07:21:27;101778.06;;;9.50;60.44
17764;BME280;22245;52.832;13.816;2023-05-01T07:24:49;101780.69;;;9.65;58.95
17764;BME280;22245;52.832;13.816;2023-05-01T07:28:10;101775.41;;;9.78;57.46
17764;BME280;22245;52.832;13.816;2023-05-01T07:31:33;101763.78;;;9.93;58.63
17764;BME280;22245;52.832;13.816;2023-05-01T07:34:55;101764.47;;;10.10;56.13
17764;BME280;22245;52.832;13.816;2023-05-01T07:38:16;101760.03;;;10.23;54.06
17764;BME280;22245;52.832;13.816;2023-05-01T07:41:38;101758.97;;;10.39;55.46
17764;BME280;22245;52.832;13.816;2023-05-01T07:45:00;101754.44;;;10.54;55.61
17764;BME280;22245;52.832;13.816;2023-05-01T07:48:23;101751.78;;;10.67;55.02
17764;BME280;22245;52.832;13.816;2023-05-01T07:51:45;101743.88;;;10.78;55.34
17764;BME280;22245;52.832;13.816;2023-05-01T07:55:09;101744.72;;;10.92;54.17
17764;BME280;22245;52.832;13.816;2023-05-01T07:58:30;101743.75;;;11.06;53.49
17764;BME280;22245;52.832;13.816;2023-05-01T08:01:52;101731.34;;;11.18;51.82
17764;BME280;22245;52.832;13.816;2023-05-01T08:05:15;101732.06;;;11.33;51.41
17764;BME280;22245;52.832;13.816;2023-05-01T08:08:37;101730.91;;;11.48;52.60
17764;BME280;22245;52.832;13.816;2023-05-01T08:11:58;101710.41;;;11.62;49.81
17764;BME280;22245;52.832;13.816;2023-05-01T08:15:22;101705.59;;;11.78;47.72
17764;BME280;22245;52.832;13.816;2023-05-01T08:18:44;101705.53;;;11.91;49.38
17764;BME280;22245;52.832;13.816;2023-05-01T08:22:08;101705.34;;;12.06;50.48
17764;BME280;22245;52.832;13.816;2023-05-01T08:25:29;101704.69;;;12.26;51.93
17764;BME280;22245;52.832;13.816;2023-05-01T08:28:51;101702.50;;;12.43;51.03
17764;BME280;22245;52.832;13.816;2023-05-01T08:32:13;101707.41;;;12.61;48.74
17764;BME280;22245;52.832;13.816;2023-05-01T08:35:35;101703.50;;;12.76;46.10
17764;BME280;22245;52.832;13.816;2023-05-01T08:38:58;101711.06;;;12.94;46.71
17764;BME280;22245;52.832;13.816;2023-05-01T08:42:20;101708.09;;;13.08;45.27
17764;BME280;22245;52.832;13.816;2023-05-01T08:45:42;101706.84;;;13.24;45.96
17764;BME280;22245;52.832;13.816;2023-05-01T08:49:05;101703.19;;;13.36;43.93
17764;BME280;22245;52.832;13.816;2023-05-01T08:52:27;101691.66;;;13.47;44.29
17764;BME280;22245;52.832;13.816;2023-05-01T08:55:52;101689.75;;;13.59;42.90
17764;BME280;22245;52.832;13.816;2023-05-01T08:59:17;101680.97;;;13.68;42.86
17764;BME280;22245;52.832;13.816;2023-05-01T09:02:40;101683.00;;;13.76;43.31
17764;BME280;22245;52.832;13.816;2023-05-01T09:06:03;101675.19;;;13.84;41.77
17764;BME280;22245;52.832;13.816;2023-05-01T09:09:25;101666.38;;;13.94;42.26
17764;BME280;22245;52.832;13.816;2023-05-01T09:12:54;101656.56;;;14.04;43.82
17764;BME280;22245;52.832;13.816;2023-05-01T09:16:16;101666.34;;;14.15;42.11
17764;BME280;22245;52.832;13.816;2023-05-01T09:19:38;101645.66;;;14.17;40.98
17764;BME280;22245;52.832;13.816;2023-05-01T09:23:00;101646.94;;;14.23;44.08
17764;BME280;22245;52.832;13.816;2023-05-01T09:26:22;101642.34;;;14.35;43.51
17764;BME280;22245;52.832;13.816;2023-05-01T09:29:46;101642.81;;;14.50;43.17
17764;BME280;22245;52.832;13.816;2023-05-01T09:33:09;101634.56;;;14.62;40.89
17764;BME280;22245;52.832;13.816;2023-05-01T09:36:32;101631.22;;;14.70;39.63
17764;BME280;22245;52.832;13.816;2023-05-01T09:40:05;101629.56;;;14.79;40.35
17764;BME280;22245;52.832;13.816;2023-05-01T09:43:28;101626.06;;;14.88;40.18
17764;BME280;22245;52.832;13.816;2023-05-01T09:46:52;101618.16;;;14.97;39.20
17764;BME280;22245;52.832;13.816;2023-05-01T09:50:28;101609.72;;;15.01;38.47
17764;BME280;22245;52.832;13.816;2023-05-01T09:53:50;101599.53;;;15.05;38.05
17764;BME280;22245;52.832;13.816;2023-05-01T09:57:12;101594.75;;;15.09;38.61
17764;BME280;22245;52.832;13.816;2023-05-01T10:00:46;101594.19;;;15.15;39.69
17764;BME280;22245;52.832;13.816;2023-05-01T10:04:09;101585.44;;;15.23;37.12
17764;BME280;22245;52.832;13.816;2023-05-01T10:07:31;101589.38;;;15.28;36.87
17764;BME280;22245;52.832;13.816;2023-05-01T10:10:59;101580.03;;;15.32;37.40
17764;BME280;22245;52.832;13.816;2023-05-01T10:14:21;101574.25;;;15.37;37.24
17764;BME280;22245;52.832;13.816;2023-05-01T10:17:43;101562.25;;;15.41;36.67
17764;BME280;22245;52.832;13.816;2023-05-01T10:21:06;101575.25;;;15.46;36.25
17764;BME280;22245;52.832;13.816;2023-05-01T10:24:30;101561.25;;;15.52;37.88
17764;BME280;22245;52.832;13.816;2023-05-01T10:27:52;101557.44;;;15.55;35.98
17764;BME280;22245;52.832;13.816;2023-05-01T10:31:14;101553.63;;;15.57;37.22
17764;BME280;22245;52.832;13.816;2023-05-01T10:34:41;101551.50;;;15.61;37.63
17764;BME280;22245;52.832;13.816;2023-05-01T10:38:08;101544.97;;;15.63;35.81
17764;BME280;22245;52.832;13.816;2023-05-01T10:42:03;101538.19;;;15.69;36.15
17764;BME280;22245;52.832;13.816;2023-05-01T10:45:29;101532.53;;;15.72;37.13
17764;BME280;22245;52.832;13.816;2023-05-01T10:48:56;101519.22;;;15.81;37.27
17764;BME280;22245;52.832;13.816;2023-05-01T10:52:18;101509.47;;;15.89;35.79
17764;BME280;22245;52.832;13.816;2023-05-01T10:55:41;101512.53;;;15.95;37.31
17764;BME280;22245;52.832;13.816;2023-05-01T10:59:04;101501.91;;;16.03;37.59
17764;BME280;22245;52.832;13.816;2023-05-01T11:02:26;101497.34;;;16.13;37.68
17764;BME280;22245;52.832;13.816;2023-05-01T11:06:06;101495.59;;;16.22;38.08
17764;BME280;22245;52.832;13.816;2023-05-01T11:09:36;101484.22;;;16.28;36.21
17764;BME280;22245;52.832;13.816;2023-05-01T11:12:59;101478.28;;;16.34;36.22
17764;BME280;22245;52.832;13.816;2023-05-01T11:16:39;101472.28;;;16.41;37.35
17764;BME280;22245;52.832;13.816;2023-05-01T11:20:02;101468.97;;;16.47;36.51
17764;BME280;22245;52.832;13.816;2023-05-01T11:23:24;101456.63;;;16.54;36.14
17764;BME280;22245;52.832;13.816;2023-05-01T11:26:47;101465.06;;;16.59;35.96
17764;BME280;22245;52.832;13.816;2023-05-01T11:30:11;101461.63;;;16.67;36.09
17764;BME280;22245;52.832;13.816;2023-05-01T11:33:33;101446.41;;;16.76;36.35
17764;BME280;22245;52.832;13.816;2023-05-01T11:36:54;101429.78;;;16.81;35.32
17764;BME280;22245;52.832;13.816;2023-05-01T11:40:21;101424.94;;;16.84;35.26
17764;BME280;22245;52.832;13.816;2023-05-01T11:43:54;101420.94;;;16.88;36.12
17764;BME280;22245;52.832;13.816;2023-05-01T11:47:17;101417.09;;;16.91;34.81
17764;BME280;22245;52.832;13.816;2023-05-01T11:50:49;101424.63;;;16.87;35.06
17764;BME280;22245;52.832;13.816;2023-05-01T11:54:11;101421.19;;;16.95;34.59
17764;BME280;22245;52.832;13.816;2023-05-01T11:57:44;101416.03;;;17.02;35.94
17764;BME280;22245;52.832;13.816;2023-05-01T12:01:06;101405.16;;;17.12;35.67
17764;BME280;22245;52.832;13.816;2023-05-01T12:04:28;101390.25;;;17.17;35.18
17764;BME280;22245;52.832;13.816;2023-05-01T12:08:04;101393.16;;;17.24;36.35
17764;BME280;22245;52.832;13.816;2023-05-01T12:11:26;101386.78;;;17.33;36.52
17764;BME280;22245;52.832;13.816;2023-05-01T12:14:48;101380.44;;;17.43;35.59
17764;BME280;22245;52.832;13.816;2023-05-01T12:18:10;101388.88;;;17.48;34.61
17764;BME280;22245;52.832;13.816;2023-05-01T12:21:32;101377.47;;;17.54;34.47
17764;BME280;22245;52.832;13.816;2023-05-01T12:24:57;101365.19;;;17.60;34.07
17764;BME280;22245;52.832;13.816;2023-05-01T12:28:19;101381.91;;;17.63;33.89
17764;BME280;22245;52.832;13.816;2023-05-01T12:31:45;101362.38;;;17.70;34.58
17764;BME280;22245;52.832;13.816;2023-05-01T12:35:14;101365.25;;;17.76;33.44
17764;BME280;22245;52.832;13.816;2023-05-01T12:38:36;101358.91;;;17.86;34.23
17764;BME280;22245;52.832;13.816;2023-05-01T12:41:59;101348.97;;;17.94;32.59
17764;BME280;22245;52.832;13.816;2023-05-01T12:45:22;101342.78;;;18.02;33.07
17764;BME280;22245;52.832;13.816;2023-05-01T12:48:43;101347.50;;;18.08;32.65
17764;BME280;22245;52.832;13.816;2023-05-01T12:52:06;101333.69;;;18.12;33.36
17764;BME280;22245;52.832;13.816;2023-05-01T12:55:29;101320.56;;;18.17;33.19
17764;BME280;22245;52.832;13.816;2023-05-01T12:58:52;101331.03;;;18.20;32.76
17764;BME280;22245;52.832;13.816;2023-05-01T13:02:16;101323.09;;;18.27;33.54
17764;BME280;22245;52.832;13.816;2023-05-01T13:05:49;101319.06;;;18.31;33.27
17764;BME280;22245;52.832;13.816;2023-05-01T13:09:10;101310.28;;;18.37;33.37
17764;BME280;22245;52.832;13.816;2023-05-01T13:12:32;101307.28;;;18.40;33.60
17764;BME280;22245;52.832;13.816;2023-05-01T13:16:06;101312.16;;;18.45;34.28
17764;BME280;22245;52.832;13.816;2023-05-01T13:19:30;101305.41;;;18.49;34.18
17764;BME280;22245;52.832;13.816;2023-05-01T13:22:51;101308.44;;;18.54;33.46
17764;BME280;22245;52.832;13.816;2023-05-01T13:26:12;101296.97;;;18.60;33.60
17764;BME280;22245;52.832;13.816;2023-05-01T13:29:35;101292.56;;;18.68;33.58
17764;BME280;22245;52.832;13.816;2023-05-01T13:32:58;101290.38;;;18.71;32.89
17764;BME280;22245;52.832;13.816;2023-05-01T13:36:21;101295.91;;;18.78;32.70
17764;BME280;22245;52.832;13.816;2023-05-01T13:39:46;101288.81;;;18.85;32.40
17764;BME280;22245;52.832;13.816;2023-05-01T13:43:12;101287.28;;;18.91;33.64
17764;BME280;22245;52.832;13.816;2023-05-01T13:46:35;101284.91;;;18.96;33.00
17764;BME280;22245;52.832;13.816;2023-05-01T13:50:01;101277.66;;;19.05;32.92
17764;BME280;22245;52.832;13.816;2023-05-01T13:53:24;101270.38;;;19.14;32.16
17764;BME280;22245;52.832;13.816;2023-05-01T13:56:45;101266.13;;;19.19;32.23
17764;BME280;22245;52.832;13.816;2023-05-01T14:00:08;101267.09;;;19.27;31.66
17764;BME280;22245;52.832;13.816;2023-05-01T14:03:39;101258.50;;;19.31;32.24
17764;BME280;22245;52.832;13.816;2023-05-01T14:07:01;101259.97;;;19.42;32.02
17764;BME280;22245;52.832;13.816;2023-05-01T14:10:26;101255.03;;;19.46;31.08
17764;BME280;22245;52.832;13.816;2023-05-01T14:13:49;101239.63;;;19.55;30.89
17764;BME280;22245;52.832;13.816;2023-05-01T14:17:11;101241.25;;;19.64;31.59
17764;BME280;22245;52.832;13.816;2023-05-01T14:20:32;101237.84;;;19.70;31.02
17764;BME280;22245;52.832;13.816;2023-05-01T14:23:56;101231.41;;;19.71;30.55
17764;BME280;22245;52.832;13.816;2023-05-01T14:27:18;101230.03;;;19.75;30.16
17764;BME280;22245;52.832;13.816;2023-05-01T14:30:40;101222.22;;;19.80;30.18
17764;BME280;22245;52.832;13.816;2023-05-01T14:34:03;101220.47;;;19.88;29.53
17764;BME280;22245;52.832;13.816;2023-05-01T14:37:26;101219.25;;;19.99;29.63
17764;BME280;22245;52.832;13.816;2023-05-01T14:40:48;101212.38;;;20.11;29.94
17764;BME280;22245;52.832;13.816;2023-05-01T14:44:11;101215.38;;;20.31;29.70
17764;BME280;22245;52.832;13.816;2023-05-01T14:47:34;101209.63;;;20.64;28.81
17764;BME280;22245;52.832;13.816;2023-05-01T14:50:56;101205.97;;;21.02;28.32
17764;BME280;22245;52.832;13.816;2023-05-01T14:54:19;101205.16;;;21.38;27.61
17764;BME280;22245;52.832;13.816;2023-05-01T14:57:43;101195.84;;;21.85;26.42
17764;BME280;22245;52.832;13.816;2023-05-01T15:01:05;101190.19;;;22.65;25.93
17764;BME280;22245;52.832;13.816;2023-05-01T15:04:26;101193.81;;;23.41;25.19
17764;BME280;22245;52.832;13.816;2023-05-01T15:07:49;101187.63;;;23.81;24.29
17764;BME280;22245;52.832;13.816;2023-05-01T15:11:12;101196.59;;;23.68;24.55
17764;BME280;22245;52.832;13.816;2023-05-01T15:14:36;101188.66;;;23.73;24.94
17764;BME280;22245;52.832;13.816;2023-05-01T15:17:57;101184.84;;;23.40;25.01
17764;BME280;22245;52.832;13.816;2023-05-01T15:21:19;101186.47;;;23.28;24.85
17764;BME280;22245;52.832;13.816;2023-05-01T15:24:40;101186.22;;;23.16;25.75
17764;BME280;22245;52.832;13.816;2023-05-01T15:28:02;101183.84;;;22.99;26.26
17764;BME280;22245;52.832;13.816;2023-05-01T15:31:25;101182.63;;;23.09;25.50
17764;BME280;22245;52.832;13.816;2023-05-01T15:34:47;101180.66;;;23.45;24.73
17764;BME280;22245;52.832;13.816;2023-05-01T15:38:14;101177.13;;;23.84;24.33
17764;BME280;22245;52.832;13.816;2023-05-01T15:41:36;101169.44;;;24.08;24.38
17764;BME280;22245;52.832;13.816;2023-05-01T15:44:59;101170.84;;;24.38;23.42
17764;BME280;22245;52.832;13.816;2023-05-01T15:48:23;101173.97;;;24.48;23.39
17764;BME280;22245;52.832;13.816;2023-05-01T15:51:45;101163.09;;;24.48;23.44
17764;BME280;22245;52.832;13.816;2023-05-01T15:55:07;101166.81;;;24.54;23.12
17764;BME280;22245;52.832;13.816;2023-05-01T15:58:29;101165.16;;;24.53;23.45
17764;BME280;22245;52.832;13.816;2023-05-01T16:01:51;101160.13;;;24.43;23.22
17764;BME280;22245;52.832;13.816;2023-05-01T16:05:18;101156.22;;;24.25;23.66
17764;BME280;22245;52.832;13.816;2023-05-01T16:08:40;101155.16;;;23.99;23.50
17764;BME280;22245;52.832;13.816;2023-05-01T16:12:03;101152.91;;;23.69;25.28
17764;BME280;22245;52.832;13.816;2023-05-01T16:15:29;101150.66;;;23.04;24.36
17764;BME280;22245;52.832;13.816;2023-05-01T16:18:53;101150.97;;;22.74;25.47
17764;BME280;22245;52.832;13.816;2023-05-01T16:22:17;101160.84;;;22.47;25.26
17764;BME280;22245;52.832;13.816;2023-05-01T16:25:41;101154.34;;;22.12;26.14
17764;BME280;22245;52.832;13.816;2023-05-01T16:29:05;101154.91;;;22.01;26.83
17764;BME280;22245;52.832;13.816;2023-05-01T16:32:27;101159.81;;;21.91;26.50
17764;BME280;22245;52.832;13.816;2023-05-01T16:35:49;101158.47;;;21.80;25.87
17764;BME280;22245;52.832;13.816;2023-05-01T16:39:14;101152.78;;;21.75;26.98
17764;BME280;22245;52.832;13.816;2023-05-01T16:42:38;101149.03;;;21.76;26.94
17764;BME280;22245;52.832;13.816;2023-05-01T16:46:00;101146.69;;;21.66;26.65
17764;BME280;22245;52.832;13.816;2023-05-01T16:49:22;101146.41;;;21.61;27.02
17764;BME280;22245;52.832;13.816;2023-05-01T16:52:44;101146.72;;;21.51;27.45
17764;BME280;22245;52.832;13.816;2023-05-01T16:56:07;101146.22;;;21.40;27.45
17764;BME280;22245;52.832;13.816;2023-05-01T16:59:29;101139.22;;;21.31;28.44
17764;BME280;22245;52.832;13.816;2023-05-01T17:02:51;101144.97;;;21.21;28.41
17764;BME280;22245;52.832;13.816;2023-05-01T17:06:14;101148.81;;;21.12;27.81
17764;BME280;22245;52.832;13.816;2023-05-01T17:09:35;101151.66;;;21.04;27.99
17764;BME280;22245;52.832;13.816;2023-05-01T17:12:59;101144.28;;;20.98;28.78
17764;BME280;22245;52.832;13.816;2023-05-01T17:16:21;101159.41;;;20.92;28.70
17764;BME280;22245;52.832;13.816;2023-05-01T17:19:42;101144.84;;;20.78;28.58
17764;BME280;22245;52.832;13.816;2023-05-01T17:23:04;101145.97;;;20.68;29.11
17764;BME280;22245;52.832;13.816;2023-05-01T17:26:25;101150.84;;;20.58;30.16
17764;BME280;22245;52.832;13.816;2023-05-01T17:29:49;101147.59;;;20.48;30.36
17764;BME280;22245;52.832;13.816;2023-05-01T17:33:10;101146.19;;;20.37;30.01
17764;BME280;22245;52.832;13.816;2023-05-01T17:36:32;101141.44;;;20.24;30.42
17764;BME280;22245;52.832;13.816;2023-05-01T17:39:54;101146.28;;;20.14;31.08
17764;BME280;22245;52.832;13.816;2023-05-01T17:43:16;101148.09;;;19.98;31.67